Time;durP1;ratioP1;P1;durP2;ratioP2;P2;SDS_P1;SDS_P2;PMS_P1;PMS_P2;Temp;Humidity;BMP_temperature;BMP_pressure;BME280_temperature;BME280_humidity;BME280_pressure;Samples;Min_cycle;Max_cycle;Signal;HPM_P1;HPM_P2
2022/03/07 00:02:23;;;;;;;;;;;;;;;-144.99;100.00;61100.13;5073005;28;19973;-75
2022/03/07 00:04:50;;;;;;;;;;;;;;;-144.99;100.00;61100.13;5072662;28;19997;-76
2022/03/07 00:07:16;;;;;;;;;;;;;;;-144.99;100.00;61100.13;5071394;28;19997;-76
2022/03/07 00:09:42;;;;;;;;;;;;;;;-144.99;100.00;61100.13;5073252;28;20009;-77
2022/03/07 00:12:09;;;;;;;;;;;;;;;-144.99;100.00;61100.13;5068942;28;19977;-77
2022/03/07 00:14:35;;;;;;;;;;;;;;;-144.99;100.00;61100.13;5068412;28;19988;-77
2022/03/07 00:17:03;;;;;;;;;;;;;;;-144.99;100.00;61100.13;5067761;28;20004;-74
2022/03/07 00:19:30;;;;;;;;;;;;;;;-144.99;100.00;61100.13;5065460;28;19977;-74
2022/03/07 00:21:56;;;;;;;;;;;;;;;-144.99;100.00;61100.13;5070276;28;19977;-74
2022/03/07 00:24:22;;;;;;;;;;;;;;;-144.99;100.00;61100.13;5070162;28;19997;-75
2022/03/07 00:26:49;;;;;;;;;;;;;;;-144.99;100.00;61100.13;5069662;28;19992;-74
2022/03/07 00:29:15;;;;;;;;;;;;;;;-144.99;100.00;61100.13;5070205;28;19981;-74
2022/03/07 00:31:41;;;;;;;;;;;;;;;-144.99;100.00;61100.13;5068248;28;19976;-74
2022/03/07 00:34:09;;;;;;;;;;;;;;;-144.99;100.00;61100.13;5066325;28;19981;-74
2022/03/07 00:36:35;;;;;;;;;;;;;;;-144.99;100.00;61100.13;5065924;28;19977;-74
2022/03/07 00:39:03;;;;;;;;;;;;;;;-144.99;100.00;61100.13;5064757;28;19973;-74
2022/03/07 00:41:30;;;;;;;;;;;;;;;-144.99;100.00;61100.13;5067609;28;20012;-74
2022/03/07 00:43:56;;;;;;;;;;;;;;;-144.99;100.00;61100.13;5069397;28;20944;-74
2022/03/07 00:46:22;;;;;;;;;;;;;;;-144.99;100.00;61100.13;5066537;28;19989;-75
2022/03/07 00:48:49;;;;;;;;;;;;;;;-144.99;100.00;61100.13;5068419;28;20001;-74
2022/03/07 00:51:16;;;;;;;;;;;;;;;-144.99;100.00;61100.13;5065597;28;19976;-76
2022/03/07 00:53:43;;;;;;;;;;;;;;;-144.99;100.00;61100.13;5070289;28;19973;-75
2022/03/07 00:56:10;;;;;;;;;;;;;;;-144.99;100.00;61100.13;5069377;28;20160;-76
2022/03/07 00:58:36;;;;;;;;;;;;;;;-144.99;100.00;61100.13;5068488;28;20485;-75
2022/03/07 01:01:03;;;;;;;;;;;;;;;-144.99;100.00;61100.13;5067869;28;19980;-75
2022/03/07 01:03:30;;;;;;;;;;;;;;;-144.99;100.00;61100.13;5065422;28;20014;-75
2022/03/07 01:05:56;;;;;;;;;;;;;;;-144.99;100.00;61100.13;5071439;28;20436;-74
2022/03/07 01:08:26;;;;;;;;;;;;;;;-144.99;100.00;61100.13;5070645;28;20044;-74
2022/03/07 01:10:52;;;;;;;;;;;;;;;-144.99;100.00;61100.13;5067251;28;20068;-75
2022/03/07 01:13:19;;;;;;;;;;;;;;;-144.99;100.00;61100.13;5064355;28;20016;-73
2022/03/07 01:15:45;;;;;;;;;;;;;;;-144.99;100.00;61100.13;5067933;28;20031;-74
2022/03/07 01:18:12;;;;;;;;;;;;;;;-144.99;100.00;61100.13;5066827;28;20462;-75
2022/03/07 01:20:38;;;;;;;;;;;;;;;-144.99;100.00;61100.13;5068058;28;19981;-75
2022/03/07 01:23:05;;;;;;;;;;;;;;;-144.99;100.00;61100.13;5064375;28;19981;-75
2022/03/07 01:25:32;;;;;;;;;;;;;;;-144.99;100.00;61100.13;5068320;28;19977;-78
2022/03/07 01:27:59;;;;;;;;;;;;;;;-144.99;100.00;61100.13;5068461;28;19969;-75
2022/03/07 01:30:25;;;;;;;;;;;;;;;-144.99;100.00;61100.13;5069146;28;19977;-77
2022/03/07 01:32:52;;;;;;;;;;;;;;;-144.99;100.00;61100.13;5067920;28;19985;-75
2022/03/07 01:35:19;;;;;;;;;;;;;;;-144.99;100.00;61100.13;5067610;28;19977;-75
2022/03/07 01:37:45;;;;;;;;;;;;;;;-144.99;100.00;61100.13;5064500;28;20000;-76
2022/03/07 01:40:12;;;;;;;;;;;;;;;-144.99;100.00;61100.13;5066867;28;19935;-74
2022/03/07 01:42:40;;;;;;;;;;;;;;;-144.99;100.00;61100.13;5068509;28;20393;-75
2022/03/07 01:45:08;;;;;;;;;;;;;;;-144.99;100.00;61100.13;5067822;28;19993;-76
2022/03/07 01:47:34;;;;;;;;;;;;;;;-144.99;100.00;61100.13;5066070;28;19996;-76
2022/03/07 01:50:01;;;;;;;;;;;;;;;-144.99;100.00;61100.13;5065497;28;19976;-76
2022/03/07 01:52:27;;;;;;;;;;;;;;;-144.99;100.00;61100.13;5077573;28;19961;-74
2022/03/07 01:54:54;;;;;;;;;;;;;;;-144.99;100.00;61100.13;5086005;28;19981;-77
2022/03/07 01:57:21;;;;;;;;;;;;;;;-144.99;100.00;61100.13;5086908;28;20000;-76
2022/03/07 01:59:48;;;;;;;;;;;;;;;-144.99;100.00;61100.13;5089468;28;19961;-77
2022/03/07 02:02:15;;;;;;;;;;;;;;;-144.99;100.00;61100.13;5088828;28;19972;-77
2022/03/07 02:04:41;;;;;;;;;;;;;;;-144.99;100.00;61100.13;5085237;28;19981;-77
2022/03/07 02:07:07;;;;;;;;;;;;;;;-144.99;100.00;61100.13;5091381;28;20012;-79
2022/03/07 02:09:41;;;;;;;;;;;;;;;-144.99;100.00;61100.13;4986462;28;9999889;-76
2022/03/07 02:12:08;;;;;;;;;;;;;;;-144.99;100.00;61100.13;5092446;28;19979;-76
2022/03/07 02:14:34;;;;;;;;;;;;;;;-144.99;100.00;61100.13;5091707;28;19991;-76
2022/03/07 02:17:02;;;;;;;;;;;;;;;-144.99;100.00;61100.13;5092322;28;20007;-78
2022/03/07 02:19:29;;;;;;;;;;;;;;;-144.99;100.00;61100.13;5085608;28;19962;-78
2022/03/07 02:22:00;;;;;;;;;;;;;;;-144.99;100.00;61100.13;5091023;28;19981;-74
2022/03/07 02:24:26;;;;;;;;;;;;;;;-144.99;100.00;61100.13;5107386;22;19977;-76
2022/03/07 02:26:56;;;;;;;;;;;;;;;-144.99;100.00;61100.13;5059693;28;20336;-76
2022/03/07 02:29:23;;;;;;;;;;;;;;;-144.99;100.00;61100.13;5067806;28;19988;-75
2022/03/07 02:31:50;;;;;;;;;;;;;;;-144.99;100.00;61100.13;5061911;28;20099;-76
2022/03/07 02:34:16;;;;;;;;;;;;;;;-144.99;100.00;61100.13;5069464;28;20573;-76
2022/03/07 02:36:43;;;;;;;;;;;;;;;-144.99;100.00;61100.13;5072816;28;19977;-76
2022/03/07 02:39:11;;;;;;;;;;;;;;;-144.99;100.00;61100.13;5069910;28;20386;-76
2022/03/07 02:41:38;;;;;;;;;;;;;;;-144.99;100.00;61100.13;5071553;28;20447;-77
2022/03/07 02:44:04;;;;;;;;;;;;;;;-144.99;100.00;61100.13;5071390;28;20597;-75
2022/03/07 02:46:30;;;;;;;;;;;;;;;-144.99;100.00;61100.13;5069101;28;19980;-76
2022/03/07 02:48:57;;;;;;;;;;;;;;;-144.99;100.00;61100.13;5070146;28;20467;-76
2022/03/07 02:51:23;;;;;;;;;;;;;;;-144.99;100.00;61100.13;5069708;28;19980;-76
2022/03/07 02:53:50;;;;;;;;;;;;;;;-144.99;100.00;61100.13;5070453;28;19976;-76
2022/03/07 02:56:18;;;;;;;;;;;;;;;-144.99;100.00;61100.13;5073000;28;20041;-76
2022/03/07 02:58:44;;;;;;;;;;;;;;;-144.99;100.00;61100.13;5070319;28;19973;-74
2022/03/07 03:01:11;;;;;;;;;;;;;;;-144.99;100.00;61100.13;5070841;28;19992;-77
2022/03/07 03:03:37;;;;;;;;;;;;;;;-144.99;100.00;61100.13;5069933;28;19977;-73
2022/03/07 03:06:03;;;;;;;;;;;;;;;-144.99;100.00;61100.13;5071480;28;19976;-76
2022/03/07 03:08:29;;;;;;;;;;;;;;;-144.99;100.00;61100.13;5074804;28;19977;-75
2022/03/07 03:10:57;;;;;;;;;;;;;;;-144.99;100.00;61100.13;5075874;28;20080;-76
2022/03/07 03:13:25;;;;;;;;;;;;;;;-144.99;100.00;61100.13;5075024;28;20134;-76
2022/03/07 03:15:52;;;;;;;;;;;;;;;-144.99;100.00;61100.13;5075144;28;20004;-76
2022/03/07 03:18:19;;;;;;;;;;;;;;;-144.99;100.00;61100.13;5062022;28;19980;-76
2022/03/07 03:20:47;;;;;;;;;;;;;;;-144.99;100.00;61100.13;5066352;28;19977;-76
2022/03/07 03:23:13;;;;;;;;;;;;;;;-144.99;100.00;61100.13;5070131;28;20378;-76
2022/03/07 03:25:39;;;;;;;;;;;;;;;-144.99;100.00;61100.13;5075298;28;20005;-76
2022/03/07 03:28:06;;;;;;;;;;;;;;;-144.99;100.00;61100.13;5075626;28;19988;-78
2022/03/07 03:30:34;;;;;;;;;;;;;;;-144.99;100.00;61100.13;5073329;28;20031;-75
2022/03/07 03:33:01;;;;;;;;;;;;;;;-144.99;100.00;61100.13;5070981;28;19973;-76
2022/03/07 03:35:27;;;;;;;;;;;;;;;-144.99;100.00;61100.13;5069973;28;19989;-75
2022/03/07 03:37:53;;;;;;;;;;;;;;;-144.99;100.00;61100.13;5068297;28;19973;-76
2022/03/07 03:40:20;;;;;;;;;;;;;;;-144.99;100.00;61100.13;5065825;28;19980;-76
2022/03/07 03:42:46;;;;;;;;;;;;;;;-144.99;100.00;61100.13;5062296;28;19977;-76
2022/03/07 03:45:13;;;;;;;;;;;;;;;-144.99;100.00;61100.13;5071249;28;20427;-76
2022/03/07 03:47:41;;;;;;;;;;;;;;;-144.99;100.00;61100.13;5061516;28;19981;-76
2022/03/07 03:50:10;;;;;;;;;;;;;;;-144.99;100.00;61100.13;5064692;28;20437;-75
2022/03/07 03:52:36;;;;;;;;;;;;;;;-144.99;100.00;61100.13;5062054;28;19988;-76
2022/03/07 03:55:03;;;;;;;;;;;;;;;-144.99;100.00;61100.13;5066919;28;20001;-75
2022/03/07 03:57:30;;;;;;;;;;;;;;;-144.99;100.00;61100.13;5065313;28;19965;-79
2022/03/07 03:59:56;;;;;;;;;;;;;;;-144.99;100.00;61100.13;5067187;28;20376;-79
2022/03/07 04:02:23;;;;;;;;;;;;;;;-144.99;100.00;61100.13;5067401;28;20344;-78
2022/03/07 04:04:50;;;;;;;;;;;;;;;-144.99;100.00;61100.13;5069235;28;19996;-78
2022/03/07 04:07:17;;;;;;;;;;;;;;;-144.99;100.00;61100.13;5068835;28;19973;-80
2022/03/07 04:09:43;;;;;;;;;;;;;;;-144.99;100.00;61100.13;5066247;28;19984;-78
2022/03/07 04:12:10;;;;;;;;;;;;;;;-144.99;100.00;61100.13;5068960;28;19977;-79
2022/03/07 04:14:36;;;;;;;;;;;;;;;-144.99;100.00;61100.13;5079856;28;19996;-78
2022/03/07 04:17:02;;;;;;;;;;;;;;;-144.99;100.00;61100.13;5072525;28;20467;-79
2022/03/07 04:19:29;;;;;;;;;;;;;;;-144.99;100.00;61100.13;5067700;28;19980;-79
2022/03/07 04:21:57;;;;;;;;;;;;;;;-144.99;100.00;61100.13;5066463;28;19981;-80
2022/03/07 04:24:23;;;;;;;;;;;;;;;-144.99;100.00;61100.13;5067322;28;20169;-80
2022/03/07 04:26:49;;;;;;;;;;;;;;;-144.99;100.00;61100.13;5068193;28;19987;-79
2022/03/07 04:29:16;;;;;;;;;;;;;;;-144.99;100.00;61100.13;5066254;28;20000;-79
2022/03/07 04:31:43;;;;;;;;;;;;;;;-144.99;100.00;61100.13;5067415;28;19977;-78
2022/03/07 04:34:12;;;;;;;;;;;;;;;-144.99;100.00;61100.13;5074824;28;20568;-77
2022/03/07 04:36:39;;;;;;;;;;;;;;;-144.99;100.00;61100.13;5067586;28;20068;-79
2022/03/07 04:39:09;;;;;;;;;;;;;;;-144.99;100.00;61100.13;5064988;28;19979;-79
2022/03/07 04:41:36;;;;;;;;;;;;;;;-144.99;100.00;61100.13;5065050;28;19977;-79
2022/03/07 04:44:03;;;;;;;;;;;;;;;-144.99;100.00;61100.13;5065980;28;19989;-79
2022/03/07 04:46:29;;;;;;;;;;;;;;;-144.99;100.00;61100.13;5066131;28;20088;-79
2022/03/07 04:48:56;;;;;;;;;;;;;;;-144.99;100.00;61100.13;5061934;28;19973;-79
2022/03/07 04:51:22;;;;;;;;;;;;;;;-144.99;100.00;61100.13;5064472;28;19973;-77
2022/03/07 04:53:48;;;;;;;;;;;;;;;-144.99;100.00;61100.13;5064790;28;19988;-77
2022/03/07 04:56:16;;;;;;;;;;;;;;;-144.99;100.00;61100.13;5067954;28;20313;-76
2022/03/07 04:58:42;;;;;;;;;;;;;;;-144.99;100.00;61100.13;5067701;28;20076;-78
2022/03/07 05:01:09;;;;;;;;;;;;;;;-144.99;100.00;61100.13;5066089;28;19977;-80
2022/03/07 05:03:36;;;;;;;;;;;;;;;-144.99;100.00;61100.13;5067377;28;19977;-80
2022/03/07 05:06:02;;;;;;;;;;;;;;;-144.99;100.00;61100.13;5064516;28;20219;-80
2022/03/07 05:08:29;;;;;;;;;;;;;;;-144.99;100.00;61100.13;5067485;28;19973;-80
2022/03/07 05:10:55;;;;;;;;;;;;;;;-144.99;100.00;61100.13;5063554;28;19976;-78
2022/03/07 05:13:23;;;;;;;;;;;;;;;-144.99;100.00;61100.13;5066704;28;19973;-78
2022/03/07 05:15:49;;;;;;;;;;;;;;;-144.99;100.00;61100.13;5066665;28;20122;-77
2022/03/07 05:18:16;;;;;;;;;;;;;;;-144.99;100.00;61100.13;5060848;28;19974;-78
2022/03/07 05:20:42;;;;;;;;;;;;;;;-144.99;100.00;61100.13;5064369;28;20288;-77
2022/03/07 05:23:08;;;;;;;;;;;;;;;-144.99;100.00;61100.13;5064626;28;20008;-76
2022/03/07 05:25:35;;;;;;;;;;;;;;;-144.99;100.00;61100.13;5066282;28;19997;-75
2022/03/07 05:28:01;;;;;;;;;;;;;;;-144.99;100.00;61100.13;5066486;28;20000;-76
2022/03/07 05:30:28;;;;;;;;;;;;;;;-144.99;100.00;61100.13;5064884;28;20364;-74
2022/03/07 05:32:55;;;;;;;;;;;;;;;-144.99;100.00;61100.13;5062819;28;20420;-75
2022/03/07 05:35:22;;;;;;;;;;;;;;;-144.99;100.00;61100.13;5065937;28;20079;-76
2022/03/07 05:37:48;;;;;;;;;;;;;;;-144.99;100.00;61100.13;5066433;28;19984;-76
2022/03/07 05:40:15;;;;;;;;;;;;;;;-144.99;100.00;61100.13;5064379;28;19977;-73
2022/03/07 05:42:42;;;;;;;;;;;;;;;-144.99;100.00;61100.13;5063798;28;20424;-74
2022/03/07 05:45:12;;;;;;;;;;;;;;;-144.99;100.00;61100.13;5065757;28;20486;-75
2022/03/07 05:47:40;;;;;;;;;;;;;;;-144.99;100.00;61100.13;5063699;28;20004;-78
2022/03/07 05:50:07;;;;;;;;;;;;;;;-144.99;100.00;61100.13;5063432;28;19996;-74
2022/03/07 05:52:33;;;;;;;;;;;;;;;-144.99;100.00;61100.13;5063875;28;19981;-74
2022/03/07 05:55:00;;;;;;;;;;;;;;;-144.99;100.00;61100.13;5063659;28;20487;-75
2022/03/07 05:57:26;;;;;;;;;;;;;;;-144.99;100.00;61100.13;5064948;28;20135;-75
2022/03/07 05:59:52;;;;;;;;;;;;;;;-144.99;100.00;61100.13;4360087;28;10000799;-76
2022/03/07 06:02:19;;;;;;;;;;;;;;;-144.99;100.00;61100.13;5058490;28;19977;-76
2022/03/07 06:04:46;;;;;;;;;;;;;;;-144.99;100.00;61100.13;5061444;28;20350;-75
2022/03/07 06:07:13;;;;;;;;;;;;;;;-144.99;100.00;61100.13;5061149;28;19973;-75
2022/03/07 06:09:40;;;;;;;;;;;;;;;-144.99;100.00;61100.13;5060390;28;19995;-74
2022/03/07 06:12:07;;;;;;;;;;;;;;;-144.99;100.00;61100.13;5063056;28;19976;-75
2022/03/07 06:14:33;;;;;;;;;;;;;;;-144.99;100.00;61100.13;5062736;28;20148;-73
2022/03/07 06:16:59;;;;;;;;;;;;;;;-144.99;100.00;61100.13;5061884;28;19974;-75
2022/03/07 06:19:26;;;;;;;;;;;;;;;-144.99;100.00;61100.13;5062327;28;20268;-72
2022/03/07 06:21:53;;;;;;;;;;;;;;;-144.99;100.00;61100.13;5061720;28;20431;-73
2022/03/07 06:24:20;;;;;;;;;;;;;;;-144.99;100.00;61100.13;5062146;28;19996;-75
2022/03/07 06:26:46;;;;;;;;;;;;;;;-144.99;100.00;61100.13;5062878;28;19997;-74
2022/03/07 06:29:12;;;;;;;;;;;;;;;-144.99;100.00;61100.13;5062306;28;19988;-74
2022/03/07 06:31:39;;;;;;;;;;;;;;;-144.99;100.00;61100.13;5061679;28;19981;-74
2022/03/07 06:34:07;;;;;;;;;;;;;;;-144.99;100.00;61100.13;5062725;28;20363;-75
2022/03/07 06:36:34;;;;;;;;;;;;;;;-144.99;100.00;61100.13;5064142;28;20095;-73
2022/03/07 06:39:01;;;;;;;;;;;;;;;-144.99;100.00;61100.13;5065156;28;20440;-73
2022/03/07 06:41:28;;;;;;;;;;;;;;;-144.99;100.00;61100.13;5066086;28;19973;-73
2022/03/07 06:43:54;;;;;;;;;;;;;;;-144.99;100.00;61100.13;5061486;28;19987;-74
2022/03/07 06:46:20;;;;;;;;;;;;;;;-144.99;100.00;61100.13;5066573;28;19989;-74
2022/03/07 06:48:47;;;;;;;;;;;;;;;-144.99;100.00;61100.13;5054384;28;20242;-74
2022/03/07 06:51:13;;;;;;;;;;;;;;;-144.99;100.00;61100.13;5069622;28;21695;-74
2022/03/07 06:53:39;;;;;;;;;;;;;;;-144.99;100.00;61100.13;5057372;28;19977;-74
2022/03/07 06:56:07;;;;;;;;;;;;;;;-144.99;100.00;61100.13;5061964;28;19999;-72
2022/03/07 06:58:33;;;;;;;;;;;;;;;-144.99;100.00;61100.13;5060664;28;19999;-74
2022/03/07 07:01:00;;;;;;;;;;;;;;;-144.99;100.00;61100.13;5061915;28;20032;-74
2022/03/07 07:03:26;;;;;;;;;;;;;;;-144.99;100.00;61100.13;5057747;28;19983;-75
2022/03/07 07:05:52;;;;;;;;;;;;;;;-144.99;100.00;61100.13;5064628;28;20009;-74
2022/03/07 07:08:19;;;;;;;;;;;;;;;-144.99;100.00;61100.13;5057795;28;20013;-72
2022/03/07 07:10:45;;;;;;;;;;;;;;;-144.99;100.00;61100.13;5068399;28;19985;-73
2022/03/07 07:13:14;;;;;;;;;;;;;;;-144.99;100.00;61100.13;5069778;28;19984;-73
2022/03/07 07:15:40;;;;;;;;;;;;;;;-144.99;100.00;61100.13;5069294;28;20040;-74
2022/03/07 07:18:06;;;;;;;;;;;;;;;-144.99;100.00;61100.13;5057634;28;20000;-74
2022/03/07 07:20:33;;;;;;;;;;;;;;;-144.99;100.00;61100.13;5054559;28;19985;-74
2022/03/07 07:22:59;;;;;;;;;;;;;;;-144.99;100.00;61100.13;5067861;28;19981;-74
2022/03/07 07:25:26;;;;;;;;;;;;;;;-144.99;100.00;61100.13;5068735;28;20024;-74
2022/03/07 07:27:52;;;;;;;;;;;;;;;-144.99;100.00;61100.13;5069342;28;19985;-72
2022/03/07 07:30:22;;;;;;;;;;;;;;;-144.99;100.00;61100.13;5070155;28;19985;-73
2022/03/07 07:32:48;;;;;;;;;;;;;;;-144.99;100.00;61100.13;5070748;28;19985;-75
2022/03/07 07:35:15;;;;;;;;;;;;;;;-144.99;100.00;61100.13;5067742;28;20061;-72
2022/03/07 07:37:41;;;;;;;;;;;;;;;-144.99;100.00;61100.13;5062564;28;19986;-72
2022/03/07 07:40:08;;;;;;;;;;;;;;;-144.99;100.00;61100.13;5069335;28;19988;-74
2022/03/07 07:42:35;;;;;;;;;;;;;;;-144.99;100.00;61100.13;5063733;28;20016;-72
2022/03/07 07:45:01;;;;;;;;;;;;;;;-144.99;100.00;61100.13;5066879;28;20378;-71
2022/03/07 07:47:29;;;;;;;;;;;;;;;-144.99;100.00;61100.13;5055479;28;19999;-73
2022/03/07 07:49:55;;;;;;;;;;;;;;;-144.99;100.00;61100.13;5059804;28;20373;-72
2022/03/07 07:52:21;;;;;;;;;;;;;;;-144.99;100.00;61100.13;5055449;28;20355;-73
2022/03/07 07:54:48;;;;;;;;;;;;;;;-144.99;100.00;61100.13;5068440;28;20451;-72
2022/03/07 07:57:14;;;;;;;;;;;;;;;-144.99;100.00;61100.13;5065021;28;19973;-73
2022/03/07 07:59:40;;;;;;;;;;;;;;;-144.99;100.00;61100.13;5069428;28;19979;-73
2022/03/07 08:02:07;;;;;;;;;;;;;;;-144.99;100.00;61100.13;5064606;28;19971;-73
2022/03/07 08:04:34;;;;;;;;;;;;;;;-144.99;100.00;61100.13;5063313;28;20007;-74
2022/03/07 08:07:01;;;;;;;;;;;;;;;-144.99;100.00;61100.13;5065611;28;19998;-75
2022/03/07 08:09:27;;;;;;;;;;;;;;;-144.99;100.00;61100.13;5063064;28;20285;-73
2022/03/07 08:11:53;;;;;;;;;;;;;;;-144.99;100.00;61100.13;5068082;28;19977;-75
2022/03/07 08:14:20;;;;;;;;;;;;;;;-144.99;100.00;61100.13;5055027;28;20004;-75
2022/03/07 08:16:46;;;;;;;;;;;;;;;-144.99;100.00;61100.13;5054909;28;19988;-74
2022/03/07 08:19:13;;;;;;;;;;;;;;;-144.99;100.00;61100.13;5056993;28;19981;-73
2022/03/07 08:21:40;;;;;;;;;;;;;;;-144.99;100.00;61100.13;5057934;28;19982;-74
2022/03/07 08:24:07;;;;;;;;;;;;;;;-144.99;100.00;61100.13;5068434;28;20012;-74
2022/03/07 08:26:33;;;;;;;;;;;;;;;-144.99;100.00;61100.13;5068775;28;20012;-75
2022/03/07 08:29:00;;;;;;;;;;;;;;;-144.99;100.00;61100.13;5068618;28;19980;-74
2022/03/07 08:31:26;;;;;;;;;;;;;;;-144.99;100.00;61100.13;5068185;28;20440;-74
2022/03/07 08:33:52;;;;;;;;;;;;;;;-144.99;100.00;61100.13;5068116;28;20006;-75
2022/03/07 08:36:19;;;;;;;;;;;;;;;-144.99;100.00;61100.13;5068495;28;19981;-75
2022/03/07 08:38:47;;;;;;;;;;;;;;;-144.99;100.00;61100.13;5068375;28;20023;-77
2022/03/07 08:41:13;;;;;;;;;;;;;;;-144.99;100.00;61100.13;5069133;28;19983;-74
2022/03/07 08:43:42;;;;;;;;;;;;;;;-144.99;100.00;61100.13;5068488;28;19988;-76
2022/03/07 08:46:08;;;;;;;;;;;;;;;-144.99;100.00;61100.13;5064825;28;20014;-74
2022/03/07 08:48:34;;;;;;;;;;;;;;;-144.99;100.00;61100.13;5052325;28;19980;-77
2022/03/07 08:51:02;;;;;;;;;;;;;;;-144.99;100.00;61100.13;5066655;28;20074;-75
2022/03/07 08:53:28;;;;;;;;;;;;;;;-144.99;100.00;61100.13;5063177;28;20385;-76
2022/03/07 08:55:56;;;;;;;;;;;;;;;-144.99;100.00;61100.13;5068488;28;19995;-77
2022/03/07 08:58:22;;;;;;;;;;;;;;;-144.99;100.00;61100.13;5068103;28;19983;-76
2022/03/07 09:00:48;;;;;;;;;;;;;;;-144.99;100.00;61100.13;5068735;28;19983;-76
2022/03/07 09:03:15;;;;;;;;;;;;;;;-144.99;100.00;61100.13;5067784;28;19981;-78
2022/03/07 09:05:41;;;;;;;;;;;;;;;-144.99;100.00;61100.13;5068019;28;20001;-76
2022/03/07 09:08:09;;;;;;;;;;;;;;;-144.99;100.00;61100.13;5067862;28;20077;-75
2022/03/07 09:10:36;;;;;;;;;;;;;;;-144.99;100.00;61100.13;5068415;28;19970;-76
2022/03/07 09:13:03;;;;;;;;;;;;;;;-144.99;100.00;61100.13;5069521;28;19970;-78
2022/03/07 09:15:30;;;;;;;;;;;;;;;-144.99;100.00;61100.13;5069460;28;19993;-74
2022/03/07 09:17:56;;;;;;;;;;;;;;;-144.99;100.00;61100.13;5065517;28;20145;-75
2022/03/07 09:20:23;;;;;;;;;;;;;;;-144.99;100.00;61100.13;5053277;28;19947;-76
2022/03/07 09:22:49;;;;;;;;;;;;;;;-144.99;100.00;61100.13;5060007;28;20275;-75
2022/03/07 09:25:16;;;;;;;;;;;;;;;-144.99;100.00;61100.13;5067799;28;20333;-75
2022/03/07 09:27:44;;;;;;;;;;;;;;;-144.99;100.00;61100.13;5071472;28;19982;-76
2022/03/07 09:30:13;;;;;;;;;;;;;;;-144.99;100.00;61100.13;5075149;28;19955;-78
2022/03/07 09:32:39;;;;;;;;;;;;;;;-144.99;100.00;61100.13;5067667;28;19947;-75
2022/03/07 09:35:06;;;;;;;;;;;;;;;-144.99;100.00;61100.13;5067419;28;19940;-77
2022/03/07 09:37:33;;;;;;;;;;;;;;;-144.99;100.00;61100.13;5067295;28;20037;-76
2022/03/07 09:40:00;;;;;;;;;;;;;;;-144.99;100.00;61100.13;5067287;28;20059;-76
2022/03/07 09:42:26;;;;;;;;;;;;;;;-144.99;100.00;61100.13;5067278;28;19928;-76
2022/03/07 09:44:54;;;;;;;;;;;;;;;-144.99;100.00;61100.13;5067429;28;20053;-77
2022/03/07 09:47:22;;;;;;;;;;;;;;;-144.99;100.00;61100.13;5061826;28;19929;-76
2022/03/07 09:49:50;;;;;;;;;;;;;;;-144.99;100.00;61100.13;5066990;28;19996;-77
2022/03/07 09:52:16;;;;;;;;;;;;;;;-144.99;100.00;61100.13;5062673;28;19924;-77
2022/03/07 09:54:43;;;;;;;;;;;;;;;-144.99;100.00;61100.13;5066613;28;19928;-76
2022/03/07 09:57:09;;;;;;;;;;;;;;;-144.99;100.00;61100.13;5054483;28;19936;-76
2022/03/07 09:59:35;;;;;;;;;;;;;;;-144.99;100.00;61100.13;5067159;28;19928;-78
2022/03/07 10:02:02;;;;;;;;;;;;;;;-144.99;100.00;61100.13;5067282;28;19925;-76
2022/03/07 10:04:31;;;;;;;;;;;;;;;-144.99;100.00;61100.13;5066702;28;19931;-77
2022/03/07 10:06:57;;;;;;;;;;;;;;;-144.99;100.00;61100.13;5066408;28;19935;-76
2022/03/07 10:09:25;;;;;;;;;;;;;;;-144.99;100.00;61100.13;5067552;28;19932;-77
2022/03/07 10:11:52;;;;;;;;;;;;;;;-144.99;100.00;61100.13;5066948;28;20453;-78
2022/03/07 10:14:18;;;;;;;;;;;;;;;-144.99;100.00;61100.13;5067077;28;19925;-76
2022/03/07 10:16:45;;;;;;;;;;;;;;;-144.99;100.00;61100.13;5066977;28;19939;-77
2022/03/07 10:19:12;;;;;;;;;;;;;;;-144.99;100.00;61100.13;5051457;28;19929;-78
2022/03/07 10:21:46;;;;;;;;;;;;;;;-144.99;100.00;61100.13;5062816;28;20321;-79
2022/03/07 10:24:13;;;;;;;;;;;;;;;-144.99;100.00;61100.13;5066191;28;20020;-78
2022/03/07 10:26:39;;;;;;;;;;;;;;;-144.99;100.00;61100.13;5067385;28;19929;-79
2022/03/07 10:29:06;;;;;;;;;;;;;;;-144.99;100.00;61100.13;5067145;28;19935;-77
2022/03/07 10:31:32;;;;;;;;;;;;;;;-144.99;100.00;61100.13;5067316;28;19940;-78
2022/03/07 10:34:03;;;;;;;;;;;;;;;-144.99;100.00;61100.13;5066082;28;19948;-77
2022/03/07 10:36:30;;;;;;;;;;;;;;;-144.99;100.00;61100.13;5067273;28;19936;-78
2022/03/07 10:38:58;;;;;;;;;;;;;;;-144.99;100.00;61100.13;5067726;28;19928;-77
2022/03/07 10:41:32;;;;;;;;;;;;;;;-144.99;100.00;61100.13;5066826;28;19939;-79
2022/03/07 10:43:58;;;;;;;;;;;;;;;-144.99;100.00;61100.13;5066425;28;19932;-77
2022/03/07 10:46:26;;;;;;;;;;;;;;;-144.99;100.00;61100.13;5064897;28;20312;-76
2022/03/07 10:48:53;;;;;;;;;;;;;;;-144.99;100.00;61100.13;5055931;28;20364;-75
2022/03/07 10:51:20;;;;;;;;;;;;;;;-144.99;100.00;61100.13;5071410;28;19932;-78
2022/03/07 10:53:47;;;;;;;;;;;;;;;-144.99;100.00;61100.13;5069995;28;19928;-77
2022/03/07 10:56:16;;;;;;;;;;;;;;;-144.99;100.00;61100.13;5070536;28;19928;-76
2022/03/07 10:58:46;;;;;;;;;;;;;;;-144.99;100.00;61100.13;5070887;28;19924;-78
2022/03/07 11:01:12;;;;;;;;;;;;;;;-144.99;100.00;61100.13;5070769;28;20285;-77
2022/03/07 11:03:39;;;;;;;;;;;;;;;-144.99;100.00;61100.13;5070668;28;19924;-76
2022/03/07 11:06:05;;;;;;;;;;;;;;;-144.99;100.00;61100.13;5071559;28;19928;-78
2022/03/07 11:08:32;;;;;;;;;;;;;;;-144.99;100.00;61100.13;5070790;28;19928;-77
2022/03/07 11:10:59;;;;;;;;;;;;;;;-144.99;100.00;61100.13;5071782;28;19928;-78
2022/03/07 11:13:29;;;;;;;;;;;;;;;-144.99;100.00;61100.13;5070388;28;19936;-78
2022/03/07 11:15:56;;;;;;;;;;;;;;;-144.99;100.00;61100.13;5070732;28;19936;-78
2022/03/07 11:18:23;;;;;;;;;;;;;;;-144.99;100.00;61100.13;5058875;28;20029;-77
2022/03/07 11:20:50;;;;;;;;;;;;;;;-144.99;100.00;61100.13;5061244;28;19928;-75
2022/03/07 11:23:18;;;;;;;;;;;;;;;-144.99;100.00;61100.13;5066300;28;19932;-77
2022/03/07 11:25:45;;;;;;;;;;;;;;;-144.99;100.00;61100.13;5059937;28;19929;-77
2022/03/07 11:28:12;;;;;;;;;;;;;;;-144.99;100.00;61100.13;5056756;28;20340;-76
2022/03/07 11:30:42;;;;;;;;;;;;;;;-144.99;100.00;61100.13;5069772;28;19929;-76
2022/03/07 11:33:09;;;;;;;;;;;;;;;-144.99;100.00;61100.13;5068032;28;19924;-76
2022/03/07 11:35:35;;;;;;;;;;;;;;;-144.99;100.00;61100.13;5062652;28;19932;-78
2022/03/07 11:38:09;;;;;;;;;;;;;;;-144.99;100.00;61100.13;5057356;28;20391;-76
2022/03/07 11:40:53;;;;;;;;;;;;;;;-144.99;100.00;61100.13;5064537;28;19936;-74
2022/03/07 11:43:20;;;;;;;;;;;;;;;-144.99;100.00;61100.13;5067533;28;19929;-77
2022/03/07 11:45:47;;;;;;;;;;;;;;;-144.99;100.00;61100.13;5067856;28;19964;-74
2022/03/07 11:48:14;;;;;;;;;;;;;;;-144.99;100.00;61100.13;5064659;28;19954;-75
2022/03/07 11:50:40;;;;;;;;;;;;;;;-144.99;100.00;61100.13;5056248;28;20384;-77
2022/03/07 11:53:07;;;;;;;;;;;;;;;-144.99;100.00;61100.13;5064315;28;20415;-74
2022/03/07 11:55:33;;;;;;;;;;;;;;;-144.99;100.00;61100.13;5057587;28;20379;-77
2022/03/07 11:58:01;;;;;;;;;;;;;;;-144.99;100.00;61100.13;5063842;28;19928;-78
2022/03/07 12:00:32;;;;;;;;;;;;;;;-144.99;100.00;61100.13;5068694;28;20419;-77
2022/03/07 12:03:09;;;;;;;;;;;;;;;-144.99;100.00;61100.13;5056719;28;19992;-79
2022/03/07 12:05:35;;;;;;;;;;;;;;;-144.99;100.00;61100.13;5058930;28;19940;-76
2022/03/07 12:08:12;;;;;;;;;;;;;;;-144.99;100.00;61100.13;5058061;28;19929;-75
2022/03/07 12:10:39;;;;;;;;;;;;;;;-144.99;100.00;61100.13;5076806;28;20000;-79
2022/03/07 12:13:09;;;;;;;;;;;;;;;-144.99;100.00;61100.13;5068985;28;20430;-75
2022/03/07 12:15:49;;;;;;;;;;;;;;;-144.99;100.00;61100.13;5065805;28;19932;-78
2022/03/07 12:18:18;;;;;;;;;;;;;;;-144.99;100.00;61100.13;5059616;28;20414;-77